sensor_id;sensor_type;location;lat;lon;timestamp;temperature;humidity
4183;DHT22;2105;52.300;9.182;2023-04-06T00:02:25;3.80;1.00
4183;DHT22;2105;52.300;9.182;2023-04-06T00:04:52;3.80;1.00
4183;DHT22;2105;52.300;9.182;2023-04-06T00:07:19;3.80;1.00
4183;DHT22;2105;52.300;9.182;2023-04-06T00:09:45;3.80;1.00
4183;DHT22;2105;52.300;9.182;2023-04-06T00:12:12;3.90;99.90
4183;DHT22;2105;52.300;9.182;2023-04-06T00:14:38;3.90;99.90
4183;DHT22;2105;52.300;9.182;2023-04-06T00:17:07;4.00;99.90
4183;DHT22;2105;52.300;9.182;2023-04-06T00:19:34;4.20;99.90
4183;DHT22;2105;52.300;9.182;2023-04-06T00:22:00;4.20;99.90
4183;DHT22;2105;52.300;9.182;2023-04-06T00:24:27;4.30;99.90
4183;DHT22;2105;52.300;9.182;2023-04-06T00:26:54;4.30;99.90
4183;DHT22;2105;52.300;9.182;2023-04-06T00:29:20;4.30;99.90
4183;DHT22;2105;52.300;9.182;2023-04-06T00:31:47;4.40;99.90
4183;DHT22;2105;52.300;9.182;2023-04-06T00:34:15;4.30;99.90
4183;DHT22;2105;52.300;9.182;2023-04-06T00:36:42;4.30;99.90
4183;DHT22;2105;52.300;9.182;2023-04-06T00:39:09;4.30;99.90
4183;DHT22;2105;52.300;9.182;2023-04-06T00:41:35;4.30;99.90
4183;DHT22;2105;52.300;9.182;2023-04-06T00:44:02;4.30;99.90
4183;DHT22;2105;52.300;9.182;2023-04-06T00:46:29;4.30;99.90
4183;DHT22;2105;52.300;9.182;2023-04-06T00:48:56;4.30;99.90
4183;DHT22;2105;52.300;9.182;2023-04-06T00:51:24;4.30;99.90
4183;DHT22;2105;52.300;9.182;2023-04-06T00:53:52;4.40;99.90
4183;DHT22;2105;52.300;9.182;2023-04-06T00:56:18;4.30;99.90
4183;DHT22;2105;52.300;9.182;2023-04-06T00:58:45;4.30;99.90
4183;DHT22;2105;52.300;9.182;2023-04-06T01:01:12;4.30;99.90
4183;DHT22;2105;52.300;9.182;2023-04-06T01:03:38;4.40;99.90
4183;DHT22;2105;52.300;9.182;2023-04-06T02:47:28;4.10;99.90
4183;DHT22;2105;52.300;9.182;2023-04-06T02:49:55;4.20;99.90
4183;DHT22;2105;52.300;9.182;2023-04-06T02:52:21;4.20;99.90
4183;DHT22;2105;52.300;9.182;2023-04-06T02:54:48;4.20;99.90
4183;DHT22;2105;52.300;9.182;2023-04-06T02:57:16;4.20;99.90
4183;DHT22;2105;52.300;9.182;2023-04-06T02:59:43;4.20;99.90
4183;DHT22;2105;52.300;9.182;2023-04-06T03:02:09;4.20;99.90
4183;DHT22;2105;52.300;9.182;2023-04-06T03:04:37;4.30;99.90
4183;DHT22;2105;52.300;9.182;2023-04-06T03:07:04;4.30;99.90
4183;DHT22;2105;52.300;9.182;2023-04-06T03:09:31;4.40;99.90
4183;DHT22;2105;52.300;9.182;2023-04-06T03:11:58;4.50;99.90
4183;DHT22;2105;52.300;9.182;2023-04-06T03:14:25;4.40;99.90
4183;DHT22;2105;52.300;9.182;2023-04-06T03:16:52;4.40;99.90
4183;DHT22;2105;52.300;9.182;2023-04-06T03:19:18;4.40;99.90
4183;DHT22;2105;52.300;9.182;2023-04-06T03:21:46;4.40;99.90
4183;DHT22;2105;52.300;9.182;2023-04-06T03:24:13;4.50;99.90
4183;DHT22;2105;52.300;9.182;2023-04-06T03:26:40;4.50;99.90
4183;DHT22;2105;52.300;9.182;2023-04-06T03:29:07;4.40;99.90
4183;DHT22;2105;52.300;9.182;2023-04-06T03:31:34;4.30;99.90
4183;DHT22;2105;52.300;9.182;2023-04-06T03:34:00;4.20;99.90
4183;DHT22;2105;52.300;9.182;2023-04-06T03:36:27;4.20;99.90
4183;DHT22;2105;52.300;9.182;2023-04-06T03:38:55;4.10;99.90
4183;DHT22;2105;52.300;9.182;2023-04-06T03:41:22;4.20;99.90
4183;DHT22;2105;52.300;9.182;2023-04-06T03:43:48;4.20;99.90
4183;DHT22;2105;52.300;9.182;2023-04-06T03:46:16;4.20;99.90
4183;DHT22;2105;52.300;9.182;2023-04-06T03:48:42;4.30;99.90
4183;DHT22;2105;52.300;9.182;2023-04-06T03:51:09;4.20;99.90
4183;DHT22;2105;52.300;9.182;2023-04-06T03:53:36;4.20;99.90
4183;DHT22;2105;52.300;9.182;2023-04-06T03:56:05;4.20;99.90
4183;DHT22;2105;52.300;9.182;2023-04-06T03:58:32;4.20;99.90
4183;DHT22;2105;52.300;9.182;2023-04-06T04:00:58;4.20;99.90
4183;DHT22;2105;52.300;9.182;2023-04-06T04:03:25;4.20;99.90
4183;DHT22;2105;52.300;9.182;2023-04-06T04:05:52;4.20;99.90
4183;DHT22;2105;52.300;9.182;2023-04-06T04:08:20;4.20;99.90
4183;DHT22;2105;52.300;9.182;2023-04-06T04:10:47;4.20;99.90
4183;DHT22;2105;52.300;9.182;2023-04-06T04:13:15;4.20;99.90
4183;DHT22;2105;52.300;9.182;2023-04-06T04:15:42;4.10;99.90
4183;DHT22;2105;52.300;9.182;2023-04-06T04:18:09;4.10;99.90
4183;DHT22;2105;52.300;9.182;2023-04-06T04:20:36;4.10;99.90
4183;DHT22;2105;52.300;9.182;2023-04-06T04:23:02;4.10;99.90
4183;DHT22;2105;52.300;9.182;2023-04-06T04:25:29;4.10;99.90
4183;DHT22;2105;52.300;9.182;2023-04-06T04:27:55;4.10;99.90
4183;DHT22;2105;52.300;9.182;2023-04-06T04:30:23;4.20;99.90
4183;DHT22;2105;52.300;9.182;2023-04-06T04:32:50;4.20;99.90
4183;DHT22;2105;52.300;9.182;2023-04-06T04:35:17;4.20;99.90
4183;DHT22;2105;52.300;9.182;2023-04-06T04:37:44;4.20;99.90
4183;DHT22;2105;52.300;9.182;2023-04-06T04:40:11;4.20;99.90
4183;DHT22;2105;52.300;9.182;2023-04-06T04:42:38;4.10;99.90
4183;DHT22;2105;52.300;9.182;2023-04-06T04:45:05;4.10;99.90
4183;DHT22;2105;52.300;9.182;2023-04-06T04:47:33;4.10;99.90
4183;DHT22;2105;52.300;9.182;2023-04-06T04:50:00;4.10;99.90
4183;DHT22;2105;52.300;9.182;2023-04-06T04:52:27;4.20;99.90
4183;DHT22;2105;52.300;9.182;2023-04-06T04:54:53;4.10;99.90
4183;DHT22;2105;52.300;9.182;2023-04-06T04:57:20;4.10;99.90
4183;DHT22;2105;52.300;9.182;2023-04-06T04:59:47;4.10;99.90
4183;DHT22;2105;52.300;9.182;2023-04-06T05:02:14;4.10;99.90
4183;DHT22;2105;52.300;9.182;2023-04-06T05:04:42;4.10;99.90
4183;DHT22;2105;52.300;9.182;2023-04-06T05:07:09;4.20;99.90
4183;DHT22;2105;52.300;9.182;2023-04-06T05:09:36;4.20;99.90
4183;DHT22;2105;52.300;9.182;2023-04-06T05:12:03;4.20;99.90
4183;DHT22;2105;52.300;9.182;2023-04-06T05:14:30;4.20;99.90
4183;DHT22;2105;52.300;9.182;2023-04-06T05:16:56;4.20;99.90
4183;DHT22;2105;52.300;9.182;2023-04-06T05:19:23;4.20;99.90
4183;DHT22;2105;52.300;9.182;2023-04-06T05:21:52;4.20;99.90
4183;DHT22;2105;52.300;9.182;2023-04-06T05:24:18;4.20;99.90
4183;DHT22;2105;52.300;9.182;2023-04-06T05:26:45;4.30;99.90
4183;DHT22;2105;52.300;9.182;2023-04-06T05:29:12;4.30;99.90
4183;DHT22;2105;52.300;9.182;2023-04-06T05:31:39;4.30;99.90
4183;DHT22;2105;52.300;9.182;2023-04-06T05:34:05;4.30;99.90
4183;DHT22;2105;52.300;9.182;2023-04-06T05:36:34;4.40;99.90
4183;DHT22;2105;52.300;9.182;2023-04-06T05:39:02;4.40;99.90
4183;DHT22;2105;52.300;9.182;2023-04-06T05:41:29;4.50;99.90
4183;DHT22;2105;52.300;9.182;2023-04-06T05:43:56;4.50;99.90
4183;DHT22;2105;52.300;9.182;2023-04-06T05:46:23;4.60;99.90
4183;DHT22;2105;52.300;9.182;2023-04-06T05:48:49;4.60;99.90
4183;DHT22;2105;52.300;9.182;2023-04-06T05:51:16;4.60;99.90
4183;DHT22;2105;52.300;9.182;2023-04-06T05:53:43;4.70;99.90
4183;DHT22;2105;52.300;9.182;2023-04-06T05:56:11;4.80;99.90
4183;DHT22;2105;52.300;9.182;2023-04-06T05:58:37;4.80;99.90
4183;DHT22;2105;52.300;9.182;2023-04-06T06:01:04;4.90;99.90
4183;DHT22;2105;52.300;9.182;2023-04-06T06:03:31;4.90;99.90
4183;DHT22;2105;52.300;9.182;2023-04-06T06:06:01;5.10;99.90
4183;DHT22;2105;52.300;9.182;2023-04-06T06:08:28;5.10;99.90
4183;DHT22;2105;52.300;9.182;2023-04-06T06:10:55;5.20;99.90
4183;DHT22;2105;52.300;9.182;2023-04-06T06:13:23;5.30;99.90
4183;DHT22;2105;52.300;9.182;2023-04-06T06:15:50;5.40;99.90
4183;DHT22;2105;52.300;9.182;2023-04-06T06:18:17;5.50;99.90
4183;DHT22;2105;52.300;9.182;2023-04-06T06:20:44;5.60;99.90
4183;DHT22;2105;52.300;9.182;2023-04-06T06:23:11;5.70;99.90
4183;DHT22;2105;52.300;9.182;2023-04-06T06:25:37;5.90;99.90
4183;DHT22;2105;52.300;9.182;2023-04-06T06:28:04;5.90;96.00
4183;DHT22;2105;52.300;9.182;2023-04-06T06:30:32;6.00;90.50
4183;DHT22;2105;52.300;9.182;2023-04-06T06:32:59;6.10;82.00
4183;DHT22;2105;52.300;9.182;2023-04-06T06:35:26;6.20;89.60
4183;DHT22;2105;52.300;9.182;2023-04-06T06:37:52;6.30;79.70
4183;DHT22;2105;52.300;9.182;2023-04-06T06:40:19;6.50;65.20
4183;DHT22;2105;52.300;9.182;2023-04-06T06:42:49;6.40;55.00
4183;DHT22;2105;52.300;9.182;2023-04-06T06:45:16;6.40;93.00
4183;DHT22;2105;52.300;9.182;2023-04-06T06:47:45;6.60;37.40
4183;DHT22;2105;52.300;9.182;2023-04-06T06:50:11;6.70;25.60
4183;DHT22;2105;52.300;9.182;2023-04-06T06:52:39;6.70;25.70
4183;DHT22;2105;52.300;9.182;2023-04-06T06:55:07;6.60;24.50
4183;DHT22;2105;52.300;9.182;2023-04-06T06:57:34;6.70;25.00
4183;DHT22;2105;52.300;9.182;2023-04-06T07:00:01;6.70;17.60
4183;DHT22;2105;52.300;9.182;2023-04-06T07:02:29;6.80;15.10
4183;DHT22;2105;52.300;9.182;2023-04-06T07:04:57;6.90;1.00
4183;DHT22;2105;52.300;9.182;2023-04-06T07:07:24;7.00;1.00
4183;DHT22;2105;52.300;9.182;2023-04-06T07:09:51;7.00;1.00
4183;DHT22;2105;52.300;9.182;2023-04-06T07:12:17;7.00;1.00
4183;DHT22;2105;52.300;9.182;2023-04-06T07:14:44;7.40;3.00
4183;DHT22;2105;52.300;9.182;2023-04-06T07:17:11;7.80;1.00
4183;DHT22;2105;52.300;9.182;2023-04-06T07:19:37;7.80;1.00
4183;DHT22;2105;52.300;9.182;2023-04-06T07:22:05;7.90;1.00
4183;DHT22;2105;52.300;9.182;2023-04-06T07:24:32;8.10;1.00
4183;DHT22;2105;52.300;9.182;2023-04-06T07:26:59;8.50;1.00
4183;DHT22;2105;52.300;9.182;2023-04-06T07:29:26;8.70;1.00
4183;DHT22;2105;52.300;9.182;2023-04-06T07:31:52;8.80;1.00
4183;DHT22;2105;52.300;9.182;2023-04-06T07:34:19;8.60;1.00
4183;DHT22;2105;52.300;9.182;2023-04-06T07:36:46;8.70;1.00
4183;DHT22;2105;52.300;9.182;2023-04-06T07:39:14;9.20;1.00
4183;DHT22;2105;52.300;9.182;2023-04-06T07:41:41;10.10;1.00
4183;DHT22;2105;52.300;9.182;2023-04-06T07:44:08;10.50;1.00
4183;DHT22;2105;52.300;9.182;2023-04-06T07:46:34;10.70;1.00
4183;DHT22;2105;52.300;9.182;2023-04-06T07:49:01;10.60;1.00
4183;DHT22;2105;52.300;9.182;2023-04-06T07:51:29;10.80;1.00
4183;DHT22;2105;52.300;9.182;2023-04-06T07:53:56;10.20;1.00
4183;DHT22;2105;52.300;9.182;2023-04-06T07:56:24;10.10;1.00
4183;DHT22;2105;52.300;9.182;2023-04-06T07:58:51;10.10;1.00
4183;DHT22;2105;52.300;9.182;2023-04-06T08:01:21;9.60;1.00
4183;DHT22;2105;52.300;9.182;2023-04-06T08:03:47;9.30;1.00
4183;DHT22;2105;52.300;9.182;2023-04-06T08:06:14;9.50;1.00
4183;DHT22;2105;52.300;9.182;2023-04-06T08:08:43;9.40;1.00
4183;DHT22;2105;52.300;9.182;2023-04-06T08:11:10;9.50;1.00
4183;DHT22;2105;52.300;9.182;2023-04-06T08:13:38;9.30;1.00
4183;DHT22;2105;52.300;9.182;2023-04-06T08:16:05;9.30;1.00
4183;DHT22;2105;52.300;9.182;2023-04-06T08:18:32;9.40;1.00
4183;DHT22;2105;52.300;9.182;2023-04-06T08:20:58;9.50;1.00
4183;DHT22;2105;52.300;9.182;2023-04-06T08:23:25;9.30;1.00
4183;DHT22;2105;52.300;9.182;2023-04-06T08:25:52;9.10;1.00
4183;DHT22;2105;52.300;9.182;2023-04-06T08:28:19;9.10;1.00
4183;DHT22;2105;52.300;9.182;2023-04-06T08:30:47;8.90;1.00
4183;DHT22;2105;52.300;9.182;2023-04-06T08:33:14;9.20;1.00
4183;DHT22;2105;52.300;9.182;2023-04-06T08:35:41;9.40;1.00
4183;DHT22;2105;52.300;9.182;2023-04-06T08:38:08;9.20;1.00
4183;DHT22;2105;52.300;9.182;2023-04-06T08:40:38;9.10;1.00
4183;DHT22;2105;52.300;9.182;2023-04-06T08:43:08;9.10;1.00
4183;DHT22;2105;52.300;9.182;2023-04-06T08:45:37;9.30;1.00
4183;DHT22;2105;52.300;9.182;2023-04-06T08:48:06;9.40;1.00
4183;DHT22;2105;52.300;9.182;2023-04-06T08:50:33;9.50;6.50
4183;DHT22;2105;52.300;9.182;2023-04-06T08:53:01;9.50;1.00
4183;DHT22;2105;52.300;9.182;2023-04-06T08:55:28;9.50;1.00
4183;DHT22;2105;52.300;9.182;2023-04-06T08:57:55;9.50;1.00
4183;DHT22;2105;52.300;9.182;2023-04-06T09:00:21;9.50;1.00
4183;DHT22;2105;52.300;9.182;2023-04-06T09:02:49;9.60;1.00
4183;DHT22;2105;52.300;9.182;2023-04-06T09:05:17;9.90;1.00
4183;DHT22;2105;52.300;9.182;2023-04-06T09:07:45;10.20;1.00
4183;DHT22;2105;52.300;9.182;2023-04-06T09:10:11;10.50;1.00
4183;DHT22;2105;52.300;9.182;2023-04-06T09:12:38;10.50;1.00
4183;DHT22;2105;52.300;9.182;2023-04-06T09:15:06;10.40;1.00
4183;DHT22;2105;52.300;9.182;2023-04-06T09:17:43;10.30;1.00
4183;DHT22;2105;52.300;9.182;2023-04-06T09:20:12;10.40;1.00
4183;DHT22;2105;52.300;9.182;2023-04-06T09:22:40;10.60;1.00
4183;DHT22;2105;52.300;9.182;2023-04-06T09:25:08;10.70;9.70
4183;DHT22;2105;52.300;9.182;2023-04-06T09:27:37;10.90;1.00
4183;DHT22;2105;52.300;9.182;2023-04-06T09:30:05;11.00;1.00
4183;DHT22;2105;52.300;9.182;2023-04-06T09:32:32;11.20;11.60
4183;DHT22;2105;52.300;9.182;2023-04-06T09:35:08;11.40;21.20
4183;DHT22;2105;52.300;9.182;2023-04-06T09:37:35;11.50;43.20
4183;DHT22;2105;52.300;9.182;2023-04-06T09:40:05;11.70;1.00
4183;DHT22;2105;52.300;9.182;2023-04-06T09:42:33;11.80;34.10
4183;DHT22;2105;52.300;9.182;2023-04-06T09:45:00;11.60;8.20
4183;DHT22;2105;52.300;9.182;2023-04-06T09:47:27;11.30;15.20
4183;DHT22;2105;52.300;9.182;2023-04-06T09:49:56;11.20;58.20
4183;DHT22;2105;52.300;9.182;2023-04-06T09:52:26;11.40;49.60
4183;DHT22;2105;52.300;9.182;2023-04-06T09:54:55;11.20;47.00
4183;DHT22;2105;52.300;9.182;2023-04-06T09:57:37;11.30;48.90
4183;DHT22;2105;52.300;9.182;2023-04-06T10:00:15;11.10;47.40
4183;DHT22;2105;52.300;9.182;2023-04-06T10:02:48;11.10;69.50
4183;DHT22;2105;52.300;9.182;2023-04-06T10:05:20;11.30;46.00
4183;DHT22;2105;52.300;9.182;2023-04-06T10:07:50;11.30;92.80
4183;DHT22;2105;52.300;9.182;2023-04-06T10:10:18;11.40;99.90
4183;DHT22;2105;52.300;9.182;2023-04-06T10:12:47;11.80;95.10
4183;DHT22;2105;52.300;9.182;2023-04-06T10:15:14;11.80;77.30
4183;DHT22;2105;52.300;9.182;2023-04-06T10:17:41;12.00;55.90
4183;DHT22;2105;52.300;9.182;2023-04-06T10:20:11;12.20;94.00
4183;DHT22;2105;52.300;9.182;2023-04-06T10:22:43;12.10;99.90
4183;DHT22;2105;52.300;9.182;2023-04-06T10:25:16;11.70;99.90
4183;DHT22;2105;52.300;9.182;2023-04-06T10:27:42;11.80;99.90
4183;DHT22;2105;52.300;9.182;2023-04-06T10:30:11;11.90;99.90
4183;DHT22;2105;52.300;9.182;2023-04-06T10:32:41;11.80;99.90
4183;DHT22;2105;52.300;9.182;2023-04-06T10:35:09;12.10;99.90
4183;DHT22;2105;52.300;9.182;2023-04-06T10:38:01;12.50;99.90
4183;DHT22;2105;52.300;9.182;2023-04-06T10:40:28;12.90;99.90
4183;DHT22;2105;52.300;9.182;2023-04-06T10:43:07;12.50;99.90
4183;DHT22;2105;52.300;9.182;2023-04-06T10:45:35;12.70;99.90
4183;DHT22;2105;52.300;9.182;2023-04-06T10:48:13;13.10;99.90
4183;DHT22;2105;52.300;9.182;2023-04-06T10:50:41;12.90;99.90
4183;DHT22;2105;52.300;9.182;2023-04-06T10:53:08;12.60;1.00
4183;DHT22;2105;52.300;9.182;2023-04-06T10:55:34;12.40;1.00
4183;DHT22;2105;52.300;9.182;2023-04-06T10:58:06;12.10;1.00
4183;DHT22;2105;52.300;9.182;2023-04-06T11:00:32;12.30;1.00
4183;DHT22;2105;52.300;9.182;2023-04-06T11:03:01;12.60;1.00
4183;DHT22;2105;52.300;9.182;2023-04-06T11:05:28;12.30;1.00
4183;DHT22;2105;52.300;9.182;2023-04-06T11:07:58;12.40;1.00
4183;DHT22;2105;52.300;9.182;2023-04-06T11:10:25;12.70;1.00
4183;DHT22;2105;52.300;9.182;2023-04-06T11:12:53;12.50;1.00
4183;DHT22;2105;52.300;9.182;2023-04-06T11:15:20;12.30;1.00
4183;DHT22;2105;52.300;9.182;2023-04-06T11:17:46;12.40;1.00
4183;DHT22;2105;52.300;9.182;2023-04-06T11:20:15;12.90;1.00
4183;DHT22;2105;52.300;9.182;2023-04-06T11:22:50;12.90;1.00
4183;DHT22;2105;52.300;9.182;2023-04-06T11:25:17;12.80;1.00
4183;DHT22;2105;52.300;9.182;2023-04-06T11:27:44;13.10;1.00
4183;DHT22;2105;52.300;9.182;2023-04-06T11:30:12;13.60;1.00
4183;DHT22;2105;52.300;9.182;2023-04-06T11:32:40;13.60;1.00
4183;DHT22;2105;52.300;9.182;2023-04-06T11:35:11;13.80;1.00
4183;DHT22;2105;52.300;9.182;2023-04-06T11:37:39;13.50;1.00
4183;DHT22;2105;52.300;9.182;2023-04-06T11:40:08;13.20;1.00
4183;DHT22;2105;52.300;9.182;2023-04-06T11:42:35;13.10;1.00
4183;DHT22;2105;52.300;9.182;2023-04-06T11:45:02;13.30;1.00
4183;DHT22;2105;52.300;9.182;2023-04-06T11:47:30;13.30;1.00
4183;DHT22;2105;52.300;9.182;2023-04-06T11:50:05;13.30;1.00
4183;DHT22;2105;52.300;9.182;2023-04-06T11:52:32;12.90;1.00
4183;DHT22;2105;52.300;9.182;2023-04-06T11:55:10;13.00;1.00
4183;DHT22;2105;52.300;9.182;2023-04-06T11:57:37;13.00;1.00
4183;DHT22;2105;52.300;9.182;2023-04-06T12:00:05;13.70;1.00
4183;DHT22;2105;52.300;9.182;2023-04-06T12:02:32;13.70;1.00
4183;DHT22;2105;52.300;9.182;2023-04-06T12:04:58;13.30;1.00
4183;DHT22;2105;52.300;9.182;2023-04-06T12:07:25;13.10;1.00
4183;DHT22;2105;52.300;9.182;2023-04-06T12:09:52;13.30;1.00
4183;DHT22;2105;52.300;9.182;2023-04-06T12:12:20;13.30;1.00
4183;DHT22;2105;52.300;9.182;2023-04-06T12:14:46;13.40;1.00
4183;DHT22;2105;52.300;9.182;2023-04-06T12:17:13;13.60;1.00
4183;DHT22;2105;52.300;9.182;2023-04-06T12:19:40;13.60;1.00
4183;DHT22;2105;52.300;9.182;2023-04-06T12:22:06;13.60;1.00
4183;DHT22;2105;52.300;9.182;2023-04-06T12:24:33;13.50;1.00
4183;DHT22;2105;52.300;9.182;2023-04-06T12:27:00;13.80;1.00
4183;DHT22;2105;52.300;9.182;2023-04-06T12:29:28;14.00;1.00
4183;DHT22;2105;52.300;9.182;2023-04-06T12:31:55;14.10;1.00
4183;DHT22;2105;52.300;9.182;2023-04-06T12:34:21;13.70;1.00
4183;DHT22;2105;52.300;9.182;2023-04-06T12:36:48;14.00;1.00
4183;DHT22;2105;52.300;9.182;2023-04-06T12:39:15;14.40;1.00
4183;DHT22;2105;52.300;9.182;2023-04-06T12:41:42;14.40;1.00
4183;DHT22;2105;52.300;9.182;2023-04-06T12:44:08;13.80;1.00
4183;DHT22;2105;52.300;9.182;2023-04-06T12:46:37;13.40;1.00
4183;DHT22;2105;52.300;9.182;2023-04-06T12:49:04;13.50;1.00
4183;DHT22;2105;52.300;9.182;2023-04-06T12:51:30;13.40;1.00
4183;DHT22;2105;52.300;9.182;2023-04-06T12:53:57;13.40;1.00
4183;DHT22;2105;52.300;9.182;2023-04-06T12:56:24;13.50;1.00
4183;DHT22;2105;52.300;9.182;2023-04-06T12:58:53;13.90;1.00
4183;DHT22;2105;52.300;9.182;2023-04-06T13:01:20;14.20;1.00
4183;DHT22;2105;52.300;9.182;2023-04-06T13:03:48;14.30;1.00
4183;DHT22;2105;52.300;9.182;2023-04-06T13:06:15;14.50;1.00
4183;DHT22;2105;52.300;9.182;2023-04-06T13:08:41;14.70;1.00
4183;DHT22;2105;52.300;9.182;2023-04-06T13:11:08;14.40;1.00
4183;DHT22;2105;52.300;9.182;2023-04-06T13:13:36;14.30;1.00
4183;DHT22;2105;52.300;9.182;2023-04-06T13:16:04;14.10;1.00
4183;DHT22;2105;52.300;9.182;2023-04-06T13:18:32;14.10;1.00
4183;DHT22;2105;52.300;9.182;2023-04-06T13:21:01;14.20;1.00
4183;DHT22;2105;52.300;9.182;2023-04-06T13:23:28;14.30;1.00
4183;DHT22;2105;52.300;9.182;2023-04-06T13:25:59;14.50;1.00
4183;DHT22;2105;52.300;9.182;2023-04-06T13:28:26;14.60;1.00
4183;DHT22;2105;52.300;9.182;2023-04-06T13:30:53;14.10;1.00
4183;DHT22;2105;52.300;9.182;2023-04-06T13:33:20;14.40;99.90
4183;DHT22;2105;52.300;9.182;2023-04-06T13:35:47;14.30;99.90
4183;DHT22;2105;52.300;9.182;2023-04-06T13:38:15;14.30;99.90
4183;DHT22;2105;52.300;9.182;2023-04-06T13:40:42;14.70;99.90
4183;DHT22;2105;52.300;9.182;2023-04-06T13:43:09;14.70;99.90
4183;DHT22;2105;52.300;9.182;2023-04-06T13:45:36;14.80;99.90
4183;DHT22;2105;52.300;9.182;2023-04-06T13:48:03;14.20;99.90
4183;DHT22;2105;52.300;9.182;2023-04-06T13:50:30;14.00;99.90
4183;DHT22;2105;52.300;9.182;2023-04-06T13:52:57;13.90;99.90
4183;DHT22;2105;52.300;9.182;2023-04-06T13:55:25;14.10;99.90
4183;DHT22;2105;52.300;9.182;2023-04-06T13:57:52;14.00;1.00
4183;DHT22;2105;52.300;9.182;2023-04-06T14:00:18;13.90;1.00
4183;DHT22;2105;52.300;9.182;2023-04-06T14:02:45;13.90;1.00
4183;DHT22;2105;52.300;9.182;2023-04-06T14:05:12;14.30;1.00
4183;DHT22;2105;52.300;9.182;2023-04-06T14:07:39;14.70;1.00
4183;DHT22;2105;52.300;9.182;2023-04-06T14:10:07;14.50;99.90
4183;DHT22;2105;52.300;9.182;2023-04-06T14:12:40;14.10;99.90
4183;DHT22;2105;52.300;9.182;2023-04-06T14:15:08;14.10;1.00
4183;DHT22;2105;52.300;9.182;2023-04-06T14:17:36;14.10;1.00
4183;DHT22;2105;52.300;9.182;2023-04-06T14:20:03;14.40;1.00
4183;DHT22;2105;52.300;9.182;2023-04-06T14:22:30;14.80;1.00
4183;DHT22;2105;52.300;9.182;2023-04-06T14:24:57;14.80;1.00
4183;DHT22;2105;52.300;9.182;2023-04-06T14:27:23;14.70;99.90
4183;DHT22;2105;52.300;9.182;2023-04-06T14:29:51;14.70;99.90
4183;DHT22;2105;52.300;9.182;2023-04-06T14:32:19;14.70;1.00
4183;DHT22;2105;52.300;9.182;2023-04-06T14:34:46;14.80;1.00
4183;DHT22;2105;52.300;9.182;2023-04-06T14:37:12;14.60;1.00
4183;DHT22;2105;52.300;9.182;2023-04-06T14:39:40;14.50;1.00
4183;DHT22;2105;52.300;9.182;2023-04-06T14:42:06;14.50;1.00
4183;DHT22;2105;52.300;9.182;2023-04-06T14:44:33;14.40;1.00
4183;DHT22;2105;52.300;9.182;2023-04-06T14:47:03;14.50;1.00
4183;DHT22;2105;52.300;9.182;2023-04-06T14:49:30;14.70;1.00
4183;DHT22;2105;52.300;9.182;2023-04-06T14:51:56;14.90;1.00
4183;DHT22;2105;52.300;9.182;2023-04-06T14:54:24;14.70;1.00
4183;DHT22;2105;52.300;9.182;2023-04-06T14:56:50;14.20;1.00
4183;DHT22;2105;52.300;9.182;2023-04-06T14:59:17;14.10;1.00
4183;DHT22;2105;52.300;9.182;2023-04-06T15:01:44;14.30;1.00
4183;DHT22;2105;52.300;9.182;2023-04-06T15:04:12;14.30;1.00
4183;DHT22;2105;52.300;9.182;2023-04-06T15:06:39;14.30;1.00
4183;DHT22;2105;52.300;9.182;2023-04-06T15:09:06;14.30;1.00
4183;DHT22;2105;52.300;9.182;2023-04-06T15:11:32;14.50;1.00
4183;DHT22;2105;52.300;9.182;2023-04-06T15:14:00;14.70;1.00
4183;DHT22;2105;52.300;9.182;2023-04-06T15:16:27;14.80;1.00
4183;DHT22;2105;52.300;9.182;2023-04-06T15:18:57;14.90;1.00
4183;DHT22;2105;52.300;9.182;2023-04-06T15:21:25;14.50;1.00
4183;DHT22;2105;52.300;9.182;2023-04-06T15:23:52;14.20;1.00
4183;DHT22;2105;52.300;9.182;2023-04-06T15:26:19;14.00;1.00
4183;DHT22;2105;52.300;9.182;2023-04-06T15:28:46;13.90;1.00
4183;DHT22;2105;52.300;9.182;2023-04-06T15:31:14;13.80;1.00
4183;DHT22;2105;52.300;9.182;2023-04-06T15:33:40;13.70;1.00
4183;DHT22;2105;52.300;9.182;2023-04-06T15:36:13;13.80;1.00
4183;DHT22;2105;52.300;9.182;2023-04-06T15:38:46;13.90;1.00
4183;DHT22;2105;52.300;9.182;2023-04-06T15:41:13;13.90;1.00
4183;DHT22;2105;52.300;9.182;2023-04-06T15:43:40;13.80;1.00
4183;DHT22;2105;52.300;9.182;2023-04-06T15:46:07;13.70;1.00
4183;DHT22;2105;52.300;9.182;2023-04-06T15:48:34;13.80;1.00
4183;DHT22;2105;52.300;9.182;2023-04-06T15:51:00;13.90;1.00
4183;DHT22;2105;52.300;9.182;2023-04-06T15:53:27;13.90;1.00
4183;DHT22;2105;52.300;9.182;2023-04-06T15:55:58;13.80;1.00
4183;DHT22;2105;52.300;9.182;2023-04-06T15:58:26;13.60;1.00
4183;DHT22;2105;52.300;9.182;2023-04-06T16:00:52;13.50;1.00
4183;DHT22;2105;52.300;9.182;2023-04-06T16:03:19;13.40;1.00
4183;DHT22;2105;52.300;9.182;2023-04-06T16:05:46;13.40;1.00
4183;DHT22;2105;52.300;9.182;2023-04-06T16:08:13;13.40;1.00
4183;DHT22;2105;52.300;9.182;2023-04-06T16:10:39;13.50;1.00
4183;DHT22;2105;52.300;9.182;2023-04-06T16:13:08;13.50;1.00
4183;DHT22;2105;52.300;9.182;2023-04-06T16:15:34;13.40;1.00
4183;DHT22;2105;52.300;9.182;2023-04-06T16:18:01;13.30;1.00
4183;DHT22;2105;52.300;9.182;2023-04-06T16:20:28;13.20;1.00
4183;DHT22;2105;52.300;9.182;2023-04-06T16:22:55;13.10;1.00
4183;DHT22;2105;52.300;9.182;2023-04-06T16:25:21;13.10;1.00
4183;DHT22;2105;52.300;9.182;2023-04-06T16:27:48;13.10;1.00
4183;DHT22;2105;52.300;9.182;2023-04-06T16:30:17;13.00;1.00
4183;DHT22;2105;52.300;9.182;2023-04-06T16:32:44;13.00;1.00
4183;DHT22;2105;52.300;9.182;2023-04-06T16:35:13;13.10;1.00
4183;DHT22;2105;52.300;9.182;2023-04-06T16:37:40;13.10;1.00
4183;DHT22;2105;52.300;9.182;2023-04-06T16:40:08;13.00;1.00
4183;DHT22;2105;52.300;9.182;2023-04-06T16:42:35;12.90;1.00
4183;DHT22;2105;52.300;9.182;2023-04-06T16:45:02;12.90;1.00
4183;DHT22;2105;52.300;9.182;2023-04-06T16:47:30;12.80;1.00
4183;DHT22;2105;52.300;9.182;2023-04-06T16:49:56;12.80;1.00
4183;DHT22;2105;52.300;9.182;2023-04-06T16:52:23;12.70;1.00
4183;DHT22;2105;52.300;9.182;2023-04-06T16:54:50;12.70;1.00
4183;DHT22;2105;52.300;9.182;2023-04-06T16:57:16;12.60;1.00
4183;DHT22;2105;52.300;9.182;2023-04-06T16:59:44;12.50;1.00
4183;DHT22;2105;52.300;9.182;2023-04-06T17:02:11;12.50;1.00
4183;DHT22;2105;52.300;9.182;2023-04-06T17:04:39;12.40;1.00
4183;DHT22;2105;52.300;9.182;2023-04-06T17:07:06;12.40;1.00
4183;DHT22;2105;52.300;9.182;2023-04-06T17:09:34;12.30;1.00
4183;DHT22;2105;52.300;9.182;2023-04-06T17:12:00;12.30;1.00
4183;DHT22;2105;52.300;9.182;2023-04-06T17:14:27;12.20;1.00
4183;DHT22;2105;52.300;9.182;2023-04-06T17:16:54;12.20;1.00
4183;DHT22;2105;52.300;9.182;2023-04-06T17:19:21;12.20;1.00
4183;DHT22;2105;52.300;9.182;2023-04-06T17:21:49;12.00;1.00
4183;DHT22;2105;52.300;9.182;2023-04-06T17:24:16;11.90;1.00
4183;DHT22;2105;52.300;9.182;2023-04-06T17:26:42;11.80;1.00
4183;DHT22;2105;52.300;9.182;2023-04-06T17:29:09;11.80;1.00
4183;DHT22;2105;52.300;9.182;2023-04-06T17:31:36;11.70;1.00
4183;DHT22;2105;52.300;9.182;2023-04-06T17:34:02;11.60;1.00
4183;DHT22;2105;52.300;9.182;2023-04-06T17:36:30;11.30;1.00
4183;DHT22;2105;52.300;9.182;2023-04-06T17:38:58;11.20;1.00
4183;DHT22;2105;52.300;9.182;2023-04-06T17:41:25;11.10;1.00
4183;DHT22;2105;52.300;9.182;2023-04-06T17:43:53;11.00;1.00
4183;DHT22;2105;52.300;9.182;2023-04-06T17:46:19;10.80;1.00
4183;DHT22;2105;52.300;9.182;2023-04-06T17:48:46;10.60;1.00
4183;DHT22;2105;52.300;9.182;2023-04-06T17:51:13;10.60;1.00
4183;DHT22;2105;52.300;9.182;2023-04-06T17:53:43;10.50;1.00
4183;DHT22;2105;52.300;9.182;2023-04-06T17:56:11;10.40;1.00
4183;DHT22;2105;52.300;9.182;2023-04-06T17:58:38;10.10;1.00
4183;DHT22;2105;52.300;9.182;2023-04-06T18:01:05;9.60;1.00